sensor_id;sensor_type;location;lat;lon;timestamp;P1;durP1;ratioP1;P2;durP2;ratioP2
73697;SDS011;62004;42.566;23.164;2023-04-23T00:04:51;81.38;;;27.48;;
73697;SDS011;62004;42.566;23.164;2023-04-23T00:07:19;84.07;;;27.63;;
73697;SDS011;62004;42.566;23.164;2023-04-23T00:09:46;84.40;;;27.98;;
73697;SDS011;62004;42.566;23.164;2023-04-23T00:12:11;84.63;;;28.33;;
73697;SDS011;62004;42.566;23.164;2023-04-23T00:14:36;84.22;;;27.90;;
73697;SDS011;62004;42.566;23.164;2023-04-23T00:17:02;83.03;;;27.30;;
73697;SDS011;62004;42.566;23.164;2023-04-23T00:19:28;83.43;;;27.55;;
73697;SDS011;62004;42.566;23.164;2023-04-23T00:21:53;83.15;;;27.38;;
73697;SDS011;62004;42.566;23.164;2023-04-23T00:24:18;82.27;;;26.53;;
73697;SDS011;62004;42.566;23.164;2023-04-23T00:26:44;82.90;;;27.00;;
73697;SDS011;62004;42.566;23.164;2023-04-23T00:29:10;82.97;;;27.40;;
73697;SDS011;62004;42.566;23.164;2023-04-23T00:31:35;81.90;;;26.67;;
73697;SDS011;62004;42.566;23.164;2023-04-23T00:34:00;82.03;;;26.20;;
73697;SDS011;62004;42.566;23.164;2023-04-23T00:36:25;83.20;;;27.03;;
73697;SDS011;62004;42.566;23.164;2023-04-23T00:38:51;83.43;;;27.37;;
73697;SDS011;62004;42.566;23.164;2023-04-23T00:41:16;82.80;;;27.40;;
73697;SDS011;62004;42.566;23.164;2023-04-23T00:43:42;84.20;;;27.63;;
73697;SDS011;62004;42.566;23.164;2023-04-23T00:46:07;84.40;;;28.02;;
73697;SDS011;62004;42.566;23.164;2023-04-23T00:48:33;84.45;;;28.00;;
73697;SDS011;62004;42.566;23.164;2023-04-23T00:51:01;84.70;;;28.43;;
73697;SDS011;62004;42.566;23.164;2023-04-23T00:53:27;84.00;;;27.65;;
73697;SDS011;62004;42.566;23.164;2023-04-23T00:55:52;84.03;;;27.63;;
73697;SDS011;62004;42.566;23.164;2023-04-23T00:58:18;84.30;;;27.77;;
73697;SDS011;62004;42.566;23.164;2023-04-23T01:00:43;84.75;;;28.17;;
73697;SDS011;62004;42.566;23.164;2023-04-23T01:03:10;84.45;;;27.67;;
73697;SDS011;62004;42.566;23.164;2023-04-23T01:05:37;84.45;;;27.80;;
73697;SDS011;62004;42.566;23.164;2023-04-23T01:08:03;84.40;;;27.83;;
73697;SDS011;62004;42.566;23.164;2023-04-23T01:10:28;84.80;;;28.00;;
73697;SDS011;62004;42.566;23.164;2023-04-23T01:12:56;84.78;;;28.10;;
73697;SDS011;62004;42.566;23.164;2023-04-23T01:15:22;84.32;;;27.52;;
73697;SDS011;62004;42.566;23.164;2023-04-23T01:17:47;83.87;;;27.30;;
73697;SDS011;62004;42.566;23.164;2023-04-23T01:20:13;84.50;;;28.07;;
73697;SDS011;62004;42.566;23.164;2023-04-23T01:22:38;84.30;;;27.77;;
73697;SDS011;62004;42.566;23.164;2023-04-23T01:25:03;84.47;;;27.80;;
73697;SDS011;62004;42.566;23.164;2023-04-23T01:27:29;84.18;;;27.45;;
73697;SDS011;62004;42.566;23.164;2023-04-23T01:29:55;84.40;;;27.90;;
73697;SDS011;62004;42.566;23.164;2023-04-23T01:32:20;84.38;;;27.70;;
73697;SDS011;62004;42.566;23.164;2023-04-23T01:34:45;84.37;;;27.73;;
73697;SDS011;62004;42.566;23.164;2023-04-23T01:37:12;84.40;;;27.55;;
73697;SDS011;62004;42.566;23.164;2023-04-23T01:39:37;84.35;;;27.63;;
73697;SDS011;62004;42.566;23.164;2023-04-23T01:42:03;84.47;;;27.97;;
73697;SDS011;62004;42.566;23.164;2023-04-23T01:44:31;84.35;;;27.70;;
73697;SDS011;62004;42.566;23.164;2023-04-23T01:46:56;84.63;;;27.93;;
73697;SDS011;62004;42.566;23.164;2023-04-23T01:49:21;84.50;;;27.87;;
73697;SDS011;62004;42.566;23.164;2023-04-23T01:51:46;84.68;;;27.95;;
73697;SDS011;62004;42.566;23.164;2023-04-23T01:54:12;84.50;;;28.00;;
73697;SDS011;62004;42.566;23.164;2023-04-23T01:56:37;84.27;;;27.60;;
73697;SDS011;62004;42.566;23.164;2023-04-23T01:59:02;84.00;;;27.17;;
73697;SDS011;62004;42.566;23.164;2023-04-23T02:01:39;84.63;;;28.03;;
73697;SDS011;62004;42.566;23.164;2023-04-23T02:04:05;84.60;;;27.85;;
73697;SDS011;62004;42.566;23.164;2023-04-23T02:06:31;84.55;;;28.00;;
73697;SDS011;62004;42.566;23.164;2023-04-23T02:08:56;84.47;;;27.73;;
73697;SDS011;62004;42.566;23.164;2023-04-23T02:11:21;84.70;;;28.10;;
73697;SDS011;62004;42.566;23.164;2023-04-23T02:13:47;84.40;;;27.70;;
73697;SDS011;62004;42.566;23.164;2023-04-23T02:16:12;84.30;;;27.50;;
73697;SDS011;62004;42.566;23.164;2023-04-23T02:18:38;84.68;;;27.70;;
73697;SDS011;62004;42.566;23.164;2023-04-23T02:21:03;84.83;;;28.03;;
73697;SDS011;62004;42.566;23.164;2023-04-23T02:23:28;85.20;;;28.27;;
73697;SDS011;62004;42.566;23.164;2023-04-23T02:25:54;85.00;;;27.93;;
73697;SDS011;62004;42.566;23.164;2023-04-23T02:28:19;85.28;;;28.33;;
73697;SDS011;62004;42.566;23.164;2023-04-23T02:30:44;84.80;;;27.80;;
73697;SDS011;62004;42.566;23.164;2023-04-23T02:33:11;84.90;;;27.60;;
73697;SDS011;62004;42.566;23.164;2023-04-23T02:35:37;85.20;;;28.20;;
73697;SDS011;62004;42.566;23.164;2023-04-23T02:38:02;85.17;;;27.93;;
73697;SDS011;62004;42.566;23.164;2023-04-23T02:40:27;85.07;;;27.87;;
73697;SDS011;62004;42.566;23.164;2023-04-23T02:42:52;85.37;;;28.10;;
73697;SDS011;62004;42.566;23.164;2023-04-23T02:45:18;85.50;;;28.00;;
73697;SDS011;62004;42.566;23.164;2023-04-23T02:47:43;85.63;;;28.40;;
73697;SDS011;62004;42.566;23.164;2023-04-23T02:50:09;85.57;;;28.27;;
73697;SDS011;62004;42.566;23.164;2023-04-23T02:52:34;85.80;;;27.95;;
73697;SDS011;62004;42.566;23.164;2023-04-23T02:55:00;85.37;;;27.97;;
73697;SDS011;62004;42.566;23.164;2023-04-23T02:57:26;85.43;;;27.77;;
73697;SDS011;62004;42.566;23.164;2023-04-23T02:59:52;85.95;;;28.30;;
73697;SDS011;62004;42.566;23.164;2023-04-23T03:02:17;85.37;;;28.10;;
73697;SDS011;62004;42.566;23.164;2023-04-23T03:04:42;85.10;;;27.77;;
73697;SDS011;62004;42.566;23.164;2023-04-23T03:07:07;84.77;;;27.60;;
73697;SDS011;62004;42.566;23.164;2023-04-23T03:09:33;84.80;;;27.70;;
73697;SDS011;62004;42.566;23.164;2023-04-23T03:11:58;84.83;;;27.73;;
73697;SDS011;62004;42.566;23.164;2023-04-23T03:14:23;85.10;;;28.13;;
73697;SDS011;62004;42.566;23.164;2023-04-23T03:16:48;84.90;;;27.83;;
73697;SDS011;62004;42.566;23.164;2023-04-23T03:19:14;85.10;;;27.93;;
73697;SDS011;62004;42.566;23.164;2023-04-23T03:21:39;85.53;;;28.60;;
73697;SDS011;62004;42.566;23.164;2023-04-23T03:24:04;85.13;;;28.13;;
73697;SDS011;62004;42.566;23.164;2023-04-23T03:26:30;85.18;;;27.88;;
73697;SDS011;62004;42.566;23.164;2023-04-23T03:28:55;85.07;;;27.77;;
73697;SDS011;62004;42.566;23.164;2023-04-23T03:31:20;85.33;;;28.13;;
73697;SDS011;62004;42.566;23.164;2023-04-23T03:33:46;85.53;;;28.07;;
73697;SDS011;62004;42.566;23.164;2023-04-23T03:36:11;85.77;;;28.37;;
73697;SDS011;62004;42.566;23.164;2023-04-23T03:38:36;85.57;;;28.27;;
73697;SDS011;62004;42.566;23.164;2023-04-23T03:41:02;85.68;;;27.85;;
73697;SDS011;62004;42.566;23.164;2023-04-23T03:43:28;85.70;;;28.33;;
73697;SDS011;62004;42.566;23.164;2023-04-23T03:45:53;85.65;;;28.08;;
73697;SDS011;62004;42.566;23.164;2023-04-23T03:48:18;85.33;;;27.83;;
73697;SDS011;62004;42.566;23.164;2023-04-23T03:50:44;85.05;;;27.42;;
73697;SDS011;62004;42.566;23.164;2023-04-23T03:53:10;86.27;;;28.50;;
73697;SDS011;62004;42.566;23.164;2023-04-23T03:55:35;85.72;;;28.20;;
73697;SDS011;62004;42.566;23.164;2023-04-23T03:58:01;86.40;;;28.58;;
73697;SDS011;62004;42.566;23.164;2023-04-23T04:00:27;86.38;;;28.77;;
73697;SDS011;62004;42.566;23.164;2023-04-23T04:02:52;86.40;;;28.52;;
73697;SDS011;62004;42.566;23.164;2023-04-23T04:05:17;86.90;;;28.90;;
73697;SDS011;62004;42.566;23.164;2023-04-23T04:07:43;86.03;;;28.17;;
73697;SDS011;62004;42.566;23.164;2023-04-23T04:10:08;86.90;;;29.00;;
73697;SDS011;62004;42.566;23.164;2023-04-23T04:12:33;87.40;;;28.90;;
73697;SDS011;62004;42.566;23.164;2023-04-23T04:14:58;86.10;;;27.80;;
73697;SDS011;62004;42.566;23.164;2023-04-23T04:17:24;86.57;;;28.57;;
73697;SDS011;62004;42.566;23.164;2023-04-23T04:19:49;86.37;;;28.37;;
73697;SDS011;62004;42.566;23.164;2023-04-23T04:22:15;86.30;;;28.05;;
73697;SDS011;62004;42.566;23.164;2023-04-23T04:24:41;86.47;;;28.38;;
73697;SDS011;62004;42.566;23.164;2023-04-23T04:27:07;86.57;;;28.30;;
73697;SDS011;62004;42.566;23.164;2023-04-23T04:29:33;86.47;;;28.35;;
73697;SDS011;62004;42.566;23.164;2023-04-23T04:31:58;86.33;;;28.33;;
73697;SDS011;62004;42.566;23.164;2023-04-23T04:34:25;86.57;;;28.50;;
73697;SDS011;62004;42.566;23.164;2023-04-23T04:36:50;86.72;;;28.30;;
73697;SDS011;62004;42.566;23.164;2023-04-23T04:39:17;84.63;;;28.10;;
73697;SDS011;62004;42.566;23.164;2023-04-23T04:41:44;85.07;;;28.77;;
73697;SDS011;62004;42.566;23.164;2023-04-23T04:44:09;83.73;;;28.47;;
73697;SDS011;62004;42.566;23.164;2023-04-23T04:46:34;82.90;;;28.00;;
73697;SDS011;62004;42.566;23.164;2023-04-23T04:51:29;81.85;;;26.63;;
73697;SDS011;62004;42.566;23.164;2023-04-23T04:53:54;82.37;;;27.67;;
73697;SDS011;62004;42.566;23.164;2023-04-23T04:56:20;82.95;;;28.13;;
73697;SDS011;62004;42.566;23.164;2023-04-23T04:58:48;82.47;;;28.35;;
73697;SDS011;62004;42.566;23.164;2023-04-23T05:01:13;84.60;;;29.17;;
73697;SDS011;62004;42.566;23.164;2023-04-23T05:03:38;85.97;;;29.60;;
73697;SDS011;62004;42.566;23.164;2023-04-23T05:06:04;85.73;;;29.50;;
73697;SDS011;62004;42.566;23.164;2023-04-23T05:08:29;85.95;;;29.70;;
73697;SDS011;62004;42.566;23.164;2023-04-23T05:10:54;86.33;;;29.90;;
73697;SDS011;62004;42.566;23.164;2023-04-23T05:13:20;86.53;;;29.23;;
73697;SDS011;62004;42.566;23.164;2023-04-23T05:15:46;86.47;;;29.90;;
73697;SDS011;62004;42.566;23.164;2023-04-23T05:18:11;85.53;;;29.10;;
73697;SDS011;62004;42.566;23.164;2023-04-23T05:20:36;86.40;;;30.20;;
73697;SDS011;62004;42.566;23.164;2023-04-23T05:23:02;86.75;;;30.00;;
73697;SDS011;62004;42.566;23.164;2023-04-23T05:25:28;86.25;;;29.55;;
73697;SDS011;62004;42.566;23.164;2023-04-23T05:27:53;86.50;;;29.75;;
73697;SDS011;62004;42.566;23.164;2023-04-23T05:30:18;87.50;;;30.20;;
73697;SDS011;62004;42.566;23.164;2023-04-23T05:32:43;87.33;;;29.80;;
73697;SDS011;62004;42.566;23.164;2023-04-23T05:35:09;88.80;;;31.27;;
73697;SDS011;62004;42.566;23.164;2023-04-23T05:37:34;87.67;;;30.73;;
73697;SDS011;62004;42.566;23.164;2023-04-23T05:40:00;88.43;;;30.87;;
73697;SDS011;62004;42.566;23.164;2023-04-23T05:42:26;89.57;;;30.73;;
73697;SDS011;62004;42.566;23.164;2023-04-23T05:44:52;91.00;;;31.15;;
73697;SDS011;62004;42.566;23.164;2023-04-23T05:47:17;90.27;;;30.77;;
73697;SDS011;62004;42.566;23.164;2023-04-23T05:49:42;90.50;;;30.87;;
73697;SDS011;62004;42.566;23.164;2023-04-23T05:52:07;90.77;;;30.67;;
73697;SDS011;62004;42.566;23.164;2023-04-23T05:54:33;90.93;;;31.25;;
73697;SDS011;62004;42.566;23.164;2023-04-23T05:56:58;89.90;;;30.67;;
73697;SDS011;62004;42.566;23.164;2023-04-23T05:59:23;90.10;;;31.20;;
73697;SDS011;62004;42.566;23.164;2023-04-23T06:01:49;91.23;;;30.50;;
73697;SDS011;62004;42.566;23.164;2023-04-23T06:04:14;90.50;;;30.90;;
73697;SDS011;62004;42.566;23.164;2023-04-23T06:06:41;90.10;;;30.75;;
73697;SDS011;62004;42.566;23.164;2023-04-23T06:09:06;90.45;;;30.95;;
73697;SDS011;62004;42.566;23.164;2023-04-23T06:11:31;90.05;;;31.20;;
73697;SDS011;62004;42.566;23.164;2023-04-23T06:13:57;89.83;;;31.43;;
73697;SDS011;62004;42.566;23.164;2023-04-23T06:16:23;88.72;;;30.98;;
73697;SDS011;62004;42.566;23.164;2023-04-23T06:18:48;88.85;;;31.08;;
73697;SDS011;62004;42.566;23.164;2023-04-23T06:21:13;90.07;;;31.88;;
73697;SDS011;62004;42.566;23.164;2023-04-23T06:23:39;88.93;;;31.67;;
73697;SDS011;62004;42.566;23.164;2023-04-23T06:26:04;88.93;;;31.13;;
73697;SDS011;62004;42.566;23.164;2023-04-23T06:28:30;90.97;;;31.35;;
73697;SDS011;62004;42.566;23.164;2023-04-23T06:30:55;91.28;;;31.10;;
73697;SDS011;62004;42.566;23.164;2023-04-23T06:33:20;94.07;;;31.70;;
73697;SDS011;62004;42.566;23.164;2023-04-23T06:35:45;100.20;;;31.63;;
73697;SDS011;62004;42.566;23.164;2023-04-23T06:38:11;101.22;;;31.73;;
73697;SDS011;62004;42.566;23.164;2023-04-23T06:40:36;99.00;;;31.70;;
73697;SDS011;62004;42.566;23.164;2023-04-23T06:43:01;97.67;;;31.67;;
73697;SDS011;62004;42.566;23.164;2023-04-23T06:45:29;99.78;;;31.52;;
73697;SDS011;62004;42.566;23.164;2023-04-23T06:47:56;98.65;;;31.30;;
73697;SDS011;62004;42.566;23.164;2023-04-23T06:50:21;98.60;;;31.55;;
73697;SDS011;62004;42.566;23.164;2023-04-23T06:52:46;100.50;;;31.80;;
73697;SDS011;62004;42.566;23.164;2023-04-23T06:55:11;102.97;;;32.33;;
73697;SDS011;62004;42.566;23.164;2023-04-23T06:57:37;102.13;;;31.87;;
73697;SDS011;62004;42.566;23.164;2023-04-23T07:00:02;102.13;;;31.63;;
73697;SDS011;62004;42.566;23.164;2023-04-23T07:02:29;102.07;;;32.75;;
73697;SDS011;62004;42.566;23.164;2023-04-23T07:04:54;101.30;;;32.10;;
73697;SDS011;62004;42.566;23.164;2023-04-23T07:07:20;101.70;;;32.35;;
73697;SDS011;62004;42.566;23.164;2023-04-23T07:09:45;103.67;;;32.07;;
73697;SDS011;62004;42.566;23.164;2023-04-23T07:12:11;102.30;;;32.37;;
73697;SDS011;62004;42.566;23.164;2023-04-23T07:14:36;102.20;;;32.20;;
73697;SDS011;62004;42.566;23.164;2023-04-23T07:17:01;101.70;;;32.40;;
73697;SDS011;62004;42.566;23.164;2023-04-23T07:19:26;100.87;;;32.30;;
73697;SDS011;62004;42.566;23.164;2023-04-23T07:21:52;101.17;;;31.73;;
73697;SDS011;62004;42.566;23.164;2023-04-23T07:24:17;100.43;;;32.33;;
73697;SDS011;62004;42.566;23.164;2023-04-23T07:26:43;101.05;;;32.47;;
73697;SDS011;62004;42.566;23.164;2023-04-23T07:29:09;101.72;;;31.70;;
73697;SDS011;62004;42.566;23.164;2023-04-23T07:31:35;99.00;;;31.13;;
73697;SDS011;62004;42.566;23.164;2023-04-23T07:34:01;98.32;;;31.35;;
73697;SDS011;62004;42.566;23.164;2023-04-23T07:36:26;98.40;;;31.83;;
73697;SDS011;62004;42.566;23.164;2023-04-23T07:38:51;93.35;;;31.27;;
73697;SDS011;62004;42.566;23.164;2023-04-23T07:41:17;90.43;;;31.03;;
73697;SDS011;62004;42.566;23.164;2023-04-23T07:43:42;87.53;;;31.80;;
73697;SDS011;62004;42.566;23.164;2023-04-23T07:46:07;87.43;;;30.83;;
73697;SDS011;62004;42.566;23.164;2023-04-23T07:48:33;88.13;;;31.63;;
73697;SDS011;62004;42.566;23.164;2023-04-23T07:51:01;87.82;;;31.05;;
73697;SDS011;62004;42.566;23.164;2023-04-23T07:53:27;88.22;;;31.00;;
73697;SDS011;62004;42.566;23.164;2023-04-23T07:55:53;88.50;;;31.25;;
73697;SDS011;62004;42.566;23.164;2023-04-23T07:58:19;87.68;;;31.70;;
73697;SDS011;62004;42.566;23.164;2023-04-23T08:00:45;86.63;;;31.55;;
73697;SDS011;62004;42.566;23.164;2023-04-23T08:03:10;86.80;;;31.23;;
73697;SDS011;62004;42.566;23.164;2023-04-23T08:05:35;86.93;;;31.45;;
73697;SDS011;62004;42.566;23.164;2023-04-23T08:08:02;86.72;;;31.58;;
73697;SDS011;62004;42.566;23.164;2023-04-23T08:10:27;87.27;;;32.10;;
73697;SDS011;62004;42.566;23.164;2023-04-23T08:12:52;87.33;;;31.33;;
73697;SDS011;62004;42.566;23.164;2023-04-23T08:15:18;93.60;;;31.48;;
73697;SDS011;62004;42.566;23.164;2023-04-23T08:17:43;108.40;;;30.73;;
73697;SDS011;62004;42.566;23.164;2023-04-23T08:20:09;102.90;;;30.60;;
73697;SDS011;62004;42.566;23.164;2023-04-23T08:22:34;89.05;;;31.70;;
73697;SDS011;62004;42.566;23.164;2023-04-23T08:25:00;88.70;;;32.07;;
73697;SDS011;62004;42.566;23.164;2023-04-23T08:27:25;88.53;;;31.73;;
73697;SDS011;62004;42.566;23.164;2023-04-23T08:29:50;89.32;;;31.83;;
73697;SDS011;62004;42.566;23.164;2023-04-23T08:32:16;88.35;;;31.15;;
73697;SDS011;62004;42.566;23.164;2023-04-23T08:34:41;87.80;;;30.90;;
73697;SDS011;62004;42.566;23.164;2023-04-23T08:37:06;89.00;;;31.63;;
73697;SDS011;62004;42.566;23.164;2023-04-23T08:39:32;89.20;;;31.50;;
73697;SDS011;62004;42.566;23.164;2023-04-23T08:41:59;89.57;;;31.30;;
73697;SDS011;62004;42.566;23.164;2023-04-23T08:44:26;90.32;;;31.35;;
73697;SDS011;62004;42.566;23.164;2023-04-23T08:46:53;89.07;;;31.52;;
73697;SDS011;62004;42.566;23.164;2023-04-23T08:49:18;104.68;;;31.48;;
73697;SDS011;62004;42.566;23.164;2023-04-23T08:51:48;104.97;;;30.48;;
73697;SDS011;62004;42.566;23.164;2023-04-23T08:54:14;103.93;;;30.30;;
73697;SDS011;62004;42.566;23.164;2023-04-23T08:56:40;106.90;;;30.17;;
73697;SDS011;62004;42.566;23.164;2023-04-23T08:59:06;107.50;;;30.63;;
73697;SDS011;62004;42.566;23.164;2023-04-23T09:01:31;107.25;;;30.50;;
73697;SDS011;62004;42.566;23.164;2023-04-23T09:03:57;105.97;;;30.08;;
73697;SDS011;62004;42.566;23.164;2023-04-23T09:06:23;106.95;;;30.48;;
73697;SDS011;62004;42.566;23.164;2023-04-23T09:08:48;105.97;;;30.70;;
73697;SDS011;62004;42.566;23.164;2023-04-23T09:11:14;106.65;;;30.60;;
73697;SDS011;62004;42.566;23.164;2023-04-23T09:13:41;107.05;;;30.88;;
73697;SDS011;62004;42.566;23.164;2023-04-23T09:16:06;107.37;;;30.37;;
73697;SDS011;62004;42.566;23.164;2023-04-23T09:18:31;107.80;;;30.77;;
73697;SDS011;62004;42.566;23.164;2023-04-23T09:20:56;108.20;;;30.93;;
73697;SDS011;62004;42.566;23.164;2023-04-23T09:23:22;107.33;;;30.33;;
73697;SDS011;62004;42.566;23.164;2023-04-23T09:25:47;107.10;;;30.47;;
73697;SDS011;62004;42.566;23.164;2023-04-23T09:28:12;107.60;;;31.07;;
73697;SDS011;62004;42.566;23.164;2023-04-23T09:30:41;107.85;;;30.92;;
73697;SDS011;62004;42.566;23.164;2023-04-23T09:33:07;107.07;;;30.38;;
73697;SDS011;62004;42.566;23.164;2023-04-23T09:35:34;106.32;;;30.38;;
73697;SDS011;62004;42.566;23.164;2023-04-23T09:38:01;106.60;;;30.55;;
73697;SDS011;62004;42.566;23.164;2023-04-23T09:40:31;92.60;;;31.25;;
73697;SDS011;62004;42.566;23.164;2023-04-23T09:42:56;107.27;;;30.60;;
73697;SDS011;62004;42.566;23.164;2023-04-23T09:45:22;94.60;;;30.63;;
73697;SDS011;62004;42.566;23.164;2023-04-23T09:47:50;107.97;;;30.67;;
73697;SDS011;62004;42.566;23.164;2023-04-23T09:50:16;89.43;;;30.67;;
73697;SDS011;62004;42.566;23.164;2023-04-23T09:52:41;104.95;;;30.60;;
73697;SDS011;62004;42.566;23.164;2023-04-23T09:55:07;100.80;;;31.10;;
73697;SDS011;62004;42.566;23.164;2023-04-23T09:57:35;104.05;;;31.08;;
73697;SDS011;62004;42.566;23.164;2023-04-23T10:00:11;107.15;;;31.10;;
73697;SDS011;62004;42.566;23.164;2023-04-23T10:02:36;101.85;;;31.92;;
73697;SDS011;62004;42.566;23.164;2023-04-23T10:05:12;95.30;;;30.83;;
73697;SDS011;62004;42.566;23.164;2023-04-23T10:10:03;88.10;;;31.20;;
73697;SDS011;62004;42.566;23.164;2023-04-23T10:12:28;104.97;;;30.92;;
73697;SDS011;62004;42.566;23.164;2023-04-23T10:14:54;104.83;;;30.23;;
73697;SDS011;62004;42.566;23.164;2023-04-23T10:17:21;105.03;;;30.95;;
73697;SDS011;62004;42.566;23.164;2023-04-23T10:19:46;104.83;;;30.50;;
73697;SDS011;62004;42.566;23.164;2023-04-23T10:22:13;105.28;;;30.80;;
73697;SDS011;62004;42.566;23.164;2023-04-23T10:24:39;105.65;;;30.08;;
73697;SDS011;62004;42.566;23.164;2023-04-23T10:27:06;107.85;;;31.17;;
73697;SDS011;62004;42.566;23.164;2023-04-23T10:29:34;107.95;;;31.00;;
73697;SDS011;62004;42.566;23.164;2023-04-23T10:32:01;108.10;;;31.02;;
73697;SDS011;62004;42.566;23.164;2023-04-23T10:34:28;107.70;;;30.90;;
73697;SDS011;62004;42.566;23.164;2023-04-23T10:36:53;7.40;;;4.10;;
73697;SDS011;62004;42.566;23.164;2023-04-23T10:39:19;5.50;;;2.53;;
73697;SDS011;62004;42.566;23.164;2023-04-23T10:41:45;6.75;;;2.30;;
73697;SDS011;62004;42.566;23.164;2023-04-23T10:44:12;6.47;;;3.55;;
73697;SDS011;62004;42.566;23.164;2023-04-23T10:46:38;4.95;;;3.22;;
73697;SDS011;62004;42.566;23.164;2023-04-23T10:49:10;6.93;;;3.35;;
73697;SDS011;62004;42.566;23.164;2023-04-23T10:51:38;6.43;;;2.65;;
73697;SDS011;62004;42.566;23.164;2023-04-23T10:54:04;5.72;;;2.70;;
73697;SDS011;62004;42.566;23.164;2023-04-23T10:56:29;4.13;;;3.05;;
73697;SDS011;62004;42.566;23.164;2023-04-23T10:58:55;5.78;;;3.10;;
73697;SDS011;62004;42.566;23.164;2023-04-23T11:01:23;4.88;;;2.67;;
73697;SDS011;62004;42.566;23.164;2023-04-23T11:03:48;5.05;;;2.78;;
73697;SDS011;62004;42.566;23.164;2023-04-23T11:06:19;4.50;;;3.35;;
73697;SDS011;62004;42.566;23.164;2023-04-23T11:09:13;5.63;;;2.75;;
73697;SDS011;62004;42.566;23.164;2023-04-23T11:11:48;6.47;;;2.75;;
73697;SDS011;62004;42.566;23.164;2023-04-23T11:14:14;5.15;;;3.03;;
73697;SDS011;62004;42.566;23.164;2023-04-23T11:16:40;4.03;;;2.70;;
73697;SDS011;62004;42.566;23.164;2023-04-23T11:19:08;2.60;;;1.88;;
73697;SDS011;62004;42.566;23.164;2023-04-23T11:24:21;3.55;;;2.28;;
73697;SDS011;62004;42.566;23.164;2023-04-23T11:26:46;3.13;;;2.65;;
73697;SDS011;62004;42.566;23.164;2023-04-23T11:29:12;3.25;;;1.67;;
73697;SDS011;62004;42.566;23.164;2023-04-23T11:31:39;2.90;;;2.70;;
73697;SDS011;62004;42.566;23.164;2023-04-23T11:34:04;3.33;;;2.22;;
73697;SDS011;62004;42.566;23.164;2023-04-23T11:36:32;2.42;;;2.10;;
73697;SDS011;62004;42.566;23.164;2023-04-23T11:38:57;3.47;;;2.15;;
73697;SDS011;62004;42.566;23.164;2023-04-23T11:41:23;3.20;;;1.93;;
73697;SDS011;62004;42.566;23.164;2023-04-23T11:43:48;1.57;;;1.47;;
73697;SDS011;62004;42.566;23.164;2023-04-23T11:46:13;3.03;;;2.23;;
73697;SDS011;62004;42.566;23.164;2023-04-23T11:48:38;3.30;;;3.00;;
73697;SDS011;62004;42.566;23.164;2023-04-23T11:51:04;4.75;;;2.85;;
73697;SDS011;62004;42.566;23.164;2023-04-23T11:53:29;6.67;;;2.90;;
73697;SDS011;62004;42.566;23.164;2023-04-23T11:55:54;3.13;;;2.73;;
73697;SDS011;62004;42.566;23.164;2023-04-23T11:58:20;2.60;;;2.38;;
73697;SDS011;62004;42.566;23.164;2023-04-23T12:00:45;3.50;;;2.40;;
73697;SDS011;62004;42.566;23.164;2023-04-23T12:03:10;2.77;;;2.57;;
73697;SDS011;62004;42.566;23.164;2023-04-23T12:05:41;3.17;;;2.38;;
73697;SDS011;62004;42.566;23.164;2023-04-23T12:08:17;3.65;;;2.72;;
73697;SDS011;62004;42.566;23.164;2023-04-23T12:10:44;3.45;;;2.03;;
73697;SDS011;62004;42.566;23.164;2023-04-23T12:13:15;3.97;;;2.55;;
73697;SDS011;62004;42.566;23.164;2023-04-23T12:15:45;3.58;;;2.42;;
73697;SDS011;62004;42.566;23.164;2023-04-23T12:18:10;2.53;;;2.33;;
73697;SDS011;62004;42.566;23.164;2023-04-23T12:20:36;5.45;;;2.60;;
73697;SDS011;62004;42.566;23.164;2023-04-23T12:23:04;4.10;;;2.27;;
73697;SDS011;62004;42.566;23.164;2023-04-23T12:25:33;4.22;;;3.38;;
73697;SDS011;62004;42.566;23.164;2023-04-23T12:27:59;5.00;;;3.05;;
73697;SDS011;62004;42.566;23.164;2023-04-23T12:30:28;4.88;;;2.90;;
73697;SDS011;62004;42.566;23.164;2023-04-23T12:33:02;2.83;;;2.45;;
73697;SDS011;62004;42.566;23.164;2023-04-23T12:35:44;8.85;;;2.53;;
73697;SDS011;62004;42.566;23.164;2023-04-23T12:38:23;2.97;;;2.42;;
73697;SDS011;62004;42.566;23.164;2023-04-23T12:40:49;3.72;;;1.92;;
73697;SDS011;62004;42.566;23.164;2023-04-23T12:43:14;6.28;;;2.97;;
73697;SDS011;62004;42.566;23.164;2023-04-23T12:45:39;3.50;;;2.67;;
73697;SDS011;62004;42.566;23.164;2023-04-23T12:48:05;3.70;;;2.77;;
73697;SDS011;62004;42.566;23.164;2023-04-23T12:50:30;3.08;;;2.75;;
73697;SDS011;62004;42.566;23.164;2023-04-23T12:52:55;5.60;;;3.00;;
73697;SDS011;62004;42.566;23.164;2023-04-23T12:55:20;4.90;;;3.13;;
73697;SDS011;62004;42.566;23.164;2023-04-23T12:57:46;4.27;;;3.13;;
73697;SDS011;62004;42.566;23.164;2023-04-23T13:00:11;5.35;;;3.28;;
73697;SDS011;62004;42.566;23.164;2023-04-23T13:02:37;3.92;;;2.83;;
73697;SDS011;62004;42.566;23.164;2023-04-23T13:05:02;5.83;;;3.17;;
73697;SDS011;62004;42.566;23.164;2023-04-23T13:07:28;3.80;;;2.80;;
73697;SDS011;62004;42.566;23.164;2023-04-23T13:09:53;3.60;;;2.80;;
73697;SDS011;62004;42.566;23.164;2023-04-23T13:12:18;4.03;;;3.10;;
73697;SDS011;62004;42.566;23.164;2023-04-23T13:14:44;5.55;;;2.78;;
73697;SDS011;62004;42.566;23.164;2023-04-23T13:17:09;5.28;;;2.80;;
73697;SDS011;62004;42.566;23.164;2023-04-23T13:19:34;4.40;;;2.93;;
73697;SDS011;62004;42.566;23.164;2023-04-23T13:22:01;3.22;;;2.35;;
73697;SDS011;62004;42.566;23.164;2023-04-23T13:24:28;5.72;;;2.88;;
73697;SDS011;62004;42.566;23.164;2023-04-23T13:26:53;3.33;;;3.03;;
73697;SDS011;62004;42.566;23.164;2023-04-23T13:29:18;7.93;;;2.78;;
73697;SDS011;62004;42.566;23.164;2023-04-23T13:31:44;4.07;;;2.63;;
73697;SDS011;62004;42.566;23.164;2023-04-23T13:34:09;3.27;;;2.60;;
73697;SDS011;62004;42.566;23.164;2023-04-23T13:36:34;6.30;;;4.18;;
73697;SDS011;62004;42.566;23.164;2023-04-23T13:39:01;6.07;;;3.08;;
73697;SDS011;62004;42.566;23.164;2023-04-23T13:41:27;4.30;;;3.00;;
73697;SDS011;62004;42.566;23.164;2023-04-23T13:43:52;5.45;;;2.75;;
73697;SDS011;62004;42.566;23.164;2023-04-23T13:46:17;5.23;;;2.87;;
73697;SDS011;62004;42.566;23.164;2023-04-23T13:48:43;5.28;;;3.03;;
73697;SDS011;62004;42.566;23.164;2023-04-23T13:51:08;2.70;;;2.30;;
73697;SDS011;62004;42.566;23.164;2023-04-23T13:53:34;8.60;;;2.63;;
73697;SDS011;62004;42.566;23.164;2023-04-23T13:55:59;3.60;;;2.05;;
73697;SDS011;62004;42.566;23.164;2023-04-23T13:58:24;3.50;;;2.33;;
73697;SDS011;62004;42.566;23.164;2023-04-23T14:00:50;2.97;;;2.67;;
73697;SDS011;62004;42.566;23.164;2023-04-23T14:03:15;3.00;;;2.67;;
73697;SDS011;62004;42.566;23.164;2023-04-23T14:05:41;3.13;;;2.67;;
73697;SDS011;62004;42.566;23.164;2023-04-23T14:08:06;5.50;;;2.97;;
73697;SDS011;62004;42.566;23.164;2023-04-23T14:10:32;3.38;;;2.92;;
73697;SDS011;62004;42.566;23.164;2023-04-23T14:12:58;3.60;;;2.40;;
73697;SDS011;62004;42.566;23.164;2023-04-23T14:15:24;3.60;;;2.38;;
73697;SDS011;62004;42.566;23.164;2023-04-23T14:17:49;3.60;;;2.53;;